Time;durP1;ratioP1;P1;durP2;ratioP2;P2;SDS_P1;SDS_P2;PMS_P1;PMS_P2;Temp;Humidity;BMP_temperature;BMP_pressure;BME280_temperature;BME280_humidity;BME280_pressure;Samples;Min_cycle;Max_cycle;Signal;HPM_P1;HPM_P2
2023/06/25 00:01:15;;;;;;;;;;;;;;;21.82;48.81;100683.94;7351969;19;19926;-59
2023/06/25 00:03:41;;;;;;;;;;;;;;;21.80;48.15;100688.53;7350230;19;19930;-59
2023/06/25 00:06:06;;;;;;;;;;;;;;;21.79;48.37;100692.97;7347047;19;19930;-59
2023/06/25 00:08:31;;;;;;;;;;;;;;;21.77;48.51;100678.94;7352066;19;19934;-59
2023/06/25 00:10:56;;;;;;;;;;;;;;;21.74;48.95;100680.00;7346160;19;20712;-59
2023/06/25 00:13:22;;;;;;;;;;;;;;;21.73;48.27;100677.47;7352801;19;19914;-59
2023/06/25 00:15:47;;;;;;;;;;;;;;;21.71;48.63;100664.28;7353874;19;19918;-59
2023/06/25 00:18:12;;;;;;;;;;;;;;;21.44;48.33;100619.25;7343505;19;19939;-59
2023/06/25 00:20:38;;;;;;;;;;;;;;;21.69;48.51;100665.34;7354191;19;19926;-59
2023/06/25 00:23:05;;;;;;;;;;;;;;;21.67;48.62;100656.63;7347886;19;20620;-59
2023/06/25 00:25:30;;;;;;;;;;;;;;;21.65;49.12;100647.94;7351543;19;19982;-59
2023/06/25 00:27:57;;;;;;;;;;;;;;;21.64;48.82;100640.88;7351344;19;20067;-59
2023/06/25 00:30:23;;;;;;;;;;;;;;;21.64;47.68;100643.53;7347410;19;20463;-59
2023/06/25 00:32:54;;;;;;;;;;;;;;;21.62;47.92;100637.50;7351539;19;19998;-59
2023/06/25 00:35:24;;;;;;;;;;;;;;;21.61;48.25;100641.13;7348964;19;19926;-59
2023/06/25 00:37:50;;;;;;;;;;;;;;;21.58;48.22;100625.38;7347760;19;20709;-59
2023/06/25 00:40:15;;;;;;;;;;;;;;;21.57;49.21;100623.69;7348939;19;19939;-59
2023/06/25 00:42:41;;;;;;;;;;;;;;;21.55;48.95;100621.16;7352560;19;19932;-59
2023/06/25 00:45:07;;;;;;;;;;;;;;;21.55;48.49;100613.16;7351018;19;19919;-59
2023/06/25 00:47:32;;;;;;;;;;;;;;;21.55;49.12;100601.69;7350562;19;19915;-59
2023/06/25 00:50:00;;;;;;;;;;;;;;;21.56;48.85;100598.06;7351055;19;19944;-59
2023/06/25 00:52:25;;;;;;;;;;;;;;;21.55;48.75;100586.59;7348082;19;19919;-59
2023/06/25 00:54:51;;;;;;;;;;;;;;;21.55;49.07;100589.25;7349381;19;20483;-59
2023/06/25 00:57:16;;;;;;;;;;;;;;;21.55;49.74;100578.63;7345206;19;19930;-59
2023/06/25 00:59:42;;;;;;;;;;;;;;;21.54;49.38;100571.59;7351075;19;20002;-59
2023/06/25 01:02:16;;;;;;;;;;;;;;;21.54;49.94;100570.75;7350455;19;19935;-59
2023/06/25 01:04:45;;;;;;;;;;;;;;;21.55;49.34;100556.53;7351774;19;20458;-60
2023/06/25 01:07:17;;;;;;;;;;;;;;;21.54;49.25;100550.31;7346432;19;19930;-59
2023/06/25 01:09:43;;;;;;;;;;;;;;;21.55;49.81;100551.22;7347619;19;19919;-58
2023/06/25 01:12:08;;;;;;;;;;;;;;;21.55;49.89;100551.22;7352487;19;19929;-59
2023/06/25 01:14:34;;;;;;;;;;;;;;;21.54;50.10;100546.81;7351493;19;19915;-59
2023/06/25 01:16:59;;;;;;;;;;;;;;;21.54;50.18;100528.22;7356463;19;19938;-58
2023/06/25 01:19:30;;;;;;;;;;;;;;;21.54;49.77;100533.53;7354368;19;19914;-59
2023/06/25 01:21:59;;;;;;;;;;;;;;;21.54;50.04;100530.88;7357211;19;20453;-59
2023/06/25 01:24:25;;;;;;;;;;;;;;;21.55;48.95;100530.78;7353619;19;20006;-59
2023/06/25 01:26:54;;;;;;;;;;;;;;;21.54;49.65;100529.06;7357810;19;20030;-59
2023/06/25 01:29:19;;;;;;;;;;;;;;;21.53;50.04;100526.53;7353947;19;19930;-59
2023/06/25 01:31:45;;;;;;;;;;;;;;;21.51;50.34;100510.72;7353984;19;20409;-59
2023/06/25 01:34:10;;;;;;;;;;;;;;;21.49;50.30;100510.84;7357368;19;19930;-59
2023/06/25 01:36:39;;;;;;;;;;;;;;;21.47;50.09;100501.25;7358103;19;19915;-59
2023/06/25 01:39:06;;;;;;;;;;;;;;;21.46;50.56;100495.09;7351731;19;19946;-59
2023/06/25 01:41:31;;;;;;;;;;;;;;;21.44;49.26;100496.16;7350775;19;21126;-59
2023/06/25 01:43:57;;;;;;;;;;;;;;;21.42;50.17;100503.38;7358224;19;19923;-59
2023/06/25 01:46:22;;;;;;;;;;;;;;;21.40;50.57;100490.22;7361282;19;19954;-59
2023/06/25 01:48:47;;;;;;;;;;;;;;;21.39;50.05;100492.97;7357279;19;20022;-58
2023/06/25 01:51:13;;;;;;;;;;;;;;;21.34;49.12;100464.09;7359067;19;19918;-60
2023/06/25 01:53:38;;;;;;;;;;;;;;;21.33;49.86;100473.00;7357579;19;19932;-58
2023/06/25 01:56:03;;;;;;;;;;;;;;;21.29;49.30;100466.22;7360405;19;19919;-59
2023/06/25 01:58:28;;;;;;;;;;;;;;;21.25;49.67;100473.53;7352762;19;19918;-59
2023/06/25 02:00:54;;;;;;;;;;;;;;;21.21;50.30;100469.41;7358793;19;19967;-59
2023/06/25 02:03:19;;;;;;;;;;;;;;;21.19;49.91;100481.09;7357685;19;19923;-59
2023/06/25 02:05:44;;;;;;;;;;;;;;;21.14;50.16;100472.59;7356994;19;19955;-59
2023/06/25 02:08:10;;;;;;;;;;;;;;;21.12;50.16;100493.09;7357750;19;19976;-58
2023/06/25 02:10:35;;;;;;;;;;;;;;;21.09;50.09;100493.31;7356362;19;19926;-59
2023/06/25 02:13:00;;;;;;;;;;;;;;;21.07;50.42;100479.28;7358440;19;19926;-59
2023/06/25 02:15:25;;;;;;;;;;;;;;;21.04;50.85;100479.53;7357469;19;20296;-59
2023/06/25 02:17:51;;;;;;;;;;;;;;;21.01;50.72;100471.75;7353113;19;19919;-60
2023/06/25 02:20:17;;;;;;;;;;;;;;;20.97;51.46;100464.00;7354485;19;20697;-59
2023/06/25 02:22:42;;;;;;;;;;;;;;;20.96;51.03;100467.59;7358892;19;19925;-59
2023/06/25 02:25:07;;;;;;;;;;;;;;;20.93;50.91;100475.81;7353480;19;19919;-59
2023/06/25 02:27:33;;;;;;;;;;;;;;;20.93;51.17;100464.31;7357386;19;19923;-58
2023/06/25 02:29:58;;;;;;;;;;;;;;;20.91;51.61;100445.84;7352861;19;20014;-59
2023/06/25 02:32:23;;;;;;;;;;;;;;;20.90;52.07;100436.19;7357822;19;20254;-59
2023/06/25 02:34:48;;;;;;;;;;;;;;;20.90;52.42;100436.19;7357568;19;19923;-59
2023/06/25 02:37:14;;;;;;;;;;;;;;;20.90;52.64;100428.22;7358512;19;20014;-59
2023/06/25 02:39:40;;;;;;;;;;;;;;;20.91;51.53;100435.22;7354624;19;20271;-59
2023/06/25 02:42:05;;;;;;;;;;;;;;;20.70;52.38;100396.94;7357228;19;19926;-59
2023/06/25 02:44:30;;;;;;;;;;;;;;;20.91;52.62;100435.22;7356134;19;19966;-58
2023/06/25 02:46:55;;;;;;;;;;;;;;;20.91;52.64;100435.22;7353628;19;19927;-59
2023/06/25 02:49:21;;;;;;;;;;;;;;;20.91;52.10;100415.81;7355865;19;19918;-59
2023/06/25 02:51:46;;;;;;;;;;;;;;;20.91;52.54;100406.03;7354266;19;19936;-59
2023/06/25 02:54:11;;;;;;;;;;;;;;;20.91;52.64;100386.59;7359068;19;19955;-58
2023/06/25 02:56:36;;;;;;;;;;;;;;;20.90;52.59;100383.09;7353103;19;20336;-59
2023/06/25 02:59:02;;;;;;;;;;;;;;;20.90;52.80;100401.69;7355328;19;20232;-59
2023/06/25 03:01:27;;;;;;;;;;;;;;;20.90;52.77;100404.34;7354970;19;19986;-60
2023/06/25 03:03:52;;;;;;;;;;;;;;;20.90;52.57;100406.16;7357875;19;20967;-59
2023/06/25 03:06:17;;;;;;;;;;;;;;;20.89;52.67;100405.31;7356386;19;19958;-59
2023/06/25 03:08:43;;;;;;;;;;;;;;;20.89;52.51;100407.97;7353577;19;20430;-59
2023/06/25 03:11:08;;;;;;;;;;;;;;;20.87;52.65;100388.63;7357632;19;19962;-59
2023/06/25 03:13:33;;;;;;;;;;;;;;;20.86;52.94;100394.88;7352716;19;19925;-58
2023/06/25 03:15:58;;;;;;;;;;;;;;;20.85;52.48;100377.28;7357522;19;19926;-59
2023/06/25 03:18:24;;;;;;;;;;;;;;;20.52;53.00;100326.56;7339318;19;19919;-59
2023/06/25 03:20:49;;;;;;;;;;;;;;;20.83;52.95;100383.63;7353450;19;19919;-59
2023/06/25 03:23:14;;;;;;;;;;;;;;;20.82;52.69;100380.13;7349027;19;19922;-59
2023/06/25 03:25:39;;;;;;;;;;;;;;;20.81;52.75;100378.44;7348689;19;19925;-59
2023/06/25 03:28:05;;;;;;;;;;;;;;;20.80;53.05;100374.09;7358071;19;19941;-59
2023/06/25 03:30:30;;;;;;;;;;;;;;;20.79;52.77;100368.91;7355639;19;19917;-59
2023/06/25 03:32:55;;;;;;;;;;;;;;;20.77;52.75;100369.00;7358031;19;19938;-59
2023/06/25 03:35:20;;;;;;;;;;;;;;;20.75;52.80;100368.25;7352873;19;20587;-59
2023/06/25 03:37:46;;;;;;;;;;;;;;;20.74;52.92;100369.22;7353103;19;20564;-59
2023/06/25 03:40:11;;;;;;;;;;;;;;;20.73;52.47;100356.88;7352248;19;19998;-59
2023/06/25 03:42:36;;;;;;;;;;;;;;;20.71;52.40;100359.66;7357497;19;19915;-59
2023/06/25 03:45:02;;;;;;;;;;;;;;;20.69;52.53;100344.81;7356575;19;19915;-58
2023/06/25 03:47:27;;;;;;;;;;;;;;;20.68;52.99;100356.38;7358619;19;19943;-58
2023/06/25 03:49:52;;;;;;;;;;;;;;;20.66;52.60;100359.13;7355190;19;20718;-59
2023/06/25 03:52:17;;;;;;;;;;;;;;;20.66;52.68;100355.63;7355490;19;19938;-59
2023/06/25 03:54:43;;;;;;;;;;;;;;;20.64;52.70;100362.88;7355859;19;19911;-59
2023/06/25 03:57:08;;;;;;;;;;;;;;;20.63;52.60;100367.31;7354760;19;19930;-58
2023/06/25 03:59:34;;;;;;;;;;;;;;;20.63;52.65;100366.44;7353983;19;19926;-60
2023/06/25 04:01:59;;;;;;;;;;;;;;;20.62;51.95;100364.75;7356260;19;19978;-59
2023/06/25 04:04:24;;;;;;;;;;;;;;;20.63;52.64;100358.50;7355787;19;19919;-59
2023/06/25 04:06:49;;;;;;;;;;;;;;;20.62;51.85;100364.75;7357530;19;19922;-59
2023/06/25 04:09:15;;;;;;;;;;;;;;;20.62;51.58;100354.16;7352886;19;19939;-60
2023/06/25 04:11:40;;;;;;;;;;;;;;;20.63;51.66;100361.16;7355352;19;20739;-59
2023/06/25 04:14:05;;;;;;;;;;;;;;;20.63;51.44;100362.03;7350819;19;19922;-59
2023/06/25 04:16:31;;;;;;;;;;;;;;;20.63;51.39;100350.53;7358659;19;20062;-59
2023/06/25 04:18:56;;;;;;;;;;;;;;;20.65;51.43;100348.63;7353647;19;20255;-59
2023/06/25 04:21:21;;;;;;;;;;;;;;;20.65;51.31;100338.03;7354847;19;20731;-59
2023/06/25 04:23:46;;;;;;;;;;;;;;;20.64;51.25;100329.22;7355559;19;19915;-59
2023/06/25 04:26:12;;;;;;;;;;;;;;;20.66;51.23;100331.75;7354201;19;20005;-59
2023/06/25 04:28:37;;;;;;;;;;;;;;;20.67;51.55;100322.84;7355181;19;19982;-59
2023/06/25 04:31:02;;;;;;;;;;;;;;;20.49;51.27;100289.66;7350545;19;19918;-58
2023/06/25 04:33:27;;;;;;;;;;;;;;;20.69;51.09;100336.84;7353519;19;19947;-58
2023/06/25 04:35:53;;;;;;;;;;;;;;;20.70;51.19;100314.66;7353547;19;19926;-58
2023/06/25 04:38:18;;;;;;;;;;;;;;;20.71;51.01;100311.06;7354507;19;19918;-58
2023/06/25 04:40:43;;;;;;;;;;;;;;;20.72;51.16;100310.94;7353152;19;20581;-58
2023/06/25 04:43:09;;;;;;;;;;;;;;;20.73;51.30;100309.13;7353382;19;19941;-61
2023/06/25 04:45:34;;;;;;;;;;;;;;;20.76;51.15;100308.06;7354120;19;19919;-59
2023/06/25 04:47:59;;;;;;;;;;;;;;;20.77;50.94;100315.91;7352408;19;21078;-59
2023/06/25 04:50:24;;;;;;;;;;;;;;;20.78;51.28;100309.66;7355874;19;19911;-59
2023/06/25 04:52:50;;;;;;;;;;;;;;;20.80;51.26;100321.03;7362400;19;20645;-59
2023/06/25 04:55:15;;;;;;;;;;;;;;;20.82;51.26;100308.47;7357780;19;19925;-59
2023/06/25 04:57:40;;;;;;;;;;;;;;;20.84;51.50;100308.38;7360115;19;19922;-59
2023/06/25 05:00:06;;;;;;;;;;;;;;;20.85;51.57;100297.66;7359855;19;19917;-59
2023/06/25 05:02:31;;;;;;;;;;;;;;;20.88;51.61;100301.88;7362739;19;19974;-59
2023/06/25 05:04:57;;;;;;;;;;;;;;;20.90;51.04;100300.81;7358626;19;19982;-60
2023/06/25 05:07:22;;;;;;;;;;;;;;;20.91;51.44;100302.50;7360952;19;19915;-59
2023/06/25 05:09:47;;;;;;;;;;;;;;;20.95;51.18;100298.69;7358515;19;19951;-59
2023/06/25 05:12:12;;;;;;;;;;;;;;;20.97;51.09;100296.75;7359324;19;20303;-59
2023/06/25 05:14:38;;;;;;;;;;;;;;;20.99;51.07;100294.84;7360482;19;19915;-59
2023/06/25 05:17:03;;;;;;;;;;;;;;;21.03;51.17;100302.56;7359987;19;20374;-59
2023/06/25 05:19:29;;;;;;;;;;;;;;;21.05;51.38;100300.69;7358871;19;19995;-59
2023/06/25 05:21:54;;;;;;;;;;;;;;;21.08;51.31;100303.09;7362033;19;19971;-59
2023/06/25 05:24:19;;;;;;;;;;;;;;;21.10;51.52;100295.88;7358432;19;19915;-59
2023/06/25 05:26:45;;;;;;;;;;;;;;;21.12;51.55;100299.25;7360783;19;19922;-59
2023/06/25 05:29:10;;;;;;;;;;;;;;;21.15;51.10;100289.28;7357451;19;19935;-59
2023/06/25 05:31:35;;;;;;;;;;;;;;;21.18;50.97;100314.72;7362403;19;20597;-59
2023/06/25 05:34:01;;;;;;;;;;;;;;;21.20;51.22;100318.16;7358057;19;19914;-59
2023/06/25 05:36:26;;;;;;;;;;;;;;;21.20;51.32;100308.38;7360409;19;20646;-59
2023/06/25 05:38:51;;;;;;;;;;;;;;;21.21;51.04;100319.84;7354903;19;19968;-59
2023/06/25 05:41:16;;;;;;;;;;;;;;;21.19;51.29;100321.75;7360756;19;20018;-59
2023/06/25 05:43:42;;;;;;;;;;;;;;;21.15;51.87;100325.59;7358153;19;20376;-60
2023/06/25 05:46:11;;;;;;;;;;;;;;;21.07;53.08;100312.03;7360550;19;19995;-59
2023/06/25 05:48:37;;;;;;;;;;;;;;;20.92;53.25;100313.97;7358855;19;19923;-59
2023/06/25 05:51:02;;;;;;;;;;;;;;;20.77;53.41;100315.91;7360086;19;19917;-59
2023/06/25 05:53:36;;;;;;;;;;;;;;;20.61;54.49;100315.31;7357654;19;20399;-59
2023/06/25 05:56:01;;;;;;;;;;;;;;;20.46;54.82;100314.56;7358267;19;20670;-60
2023/06/25 05:58:27;;;;;;;;;;;;;;;20.35;54.82;100317.97;7354792;19;19936;-59
2023/06/25 06:00:52;;;;;;;;;;;;;;;20.25;54.66;100310.75;7356419;19;20395;-59
2023/06/25 06:03:17;;;;;;;;;;;;;;;20.17;55.13;100335.13;7357020;19;19935;-59
2023/06/25 06:05:42;;;;;;;;;;;;;;;20.09;55.44;100334.81;7357280;19;19943;-59
2023/06/25 06:08:08;;;;;;;;;;;;;;;20.04;55.84;100331.63;7356046;19;19936;-59
2023/06/25 06:10:33;;;;;;;;;;;;;;;19.96;56.46;100330.31;7358942;19;20723;-60
2023/06/25 06:12:58;;;;;;;;;;;;;;;19.91;56.61;100337.75;7350364;19;19955;-59
2023/06/25 06:15:23;;;;;;;;;;;;;;;19.87;56.61;100344.22;7357185;19;20591;-59
2023/06/25 06:17:49;;;;;;;;;;;;;;;19.85;58.26;100343.47;7356144;19;19963;-59
2023/06/25 06:20:14;;;;;;;;;;;;;;;19.82;59.42;100341.03;7359551;19;20001;-59
2023/06/25 06:22:39;;;;;;;;;;;;;;;19.78;60.62;100336.88;7351634;19;19935;-59
2023/06/25 06:25:04;;;;;;;;;;;;;;;19.39;61.86;100287.38;7357488;19;19926;-59
2023/06/25 06:27:30;;;;;;;;;;;;;;;19.68;62.01;100333.16;7357093;19;19915;-58
2023/06/25 06:29:55;;;;;;;;;;;;;;;19.60;62.12;100340.75;7344314;19;19951;-58
2023/06/25 06:32:20;;;;;;;;;;;;;;;19.53;62.88;100334.13;7356295;19;20493;-58
2023/06/25 06:34:45;;;;;;;;;;;;;;;19.45;62.91;100346.06;7357602;19;19934;-59
2023/06/25 06:37:11;;;;;;;;;;;;;;;19.38;63.56;100343.91;7356755;19;19954;-59
2023/06/25 06:39:36;;;;;;;;;;;;;;;19.32;63.50;100334.59;7356424;19;19947;-59
2023/06/25 06:42:01;;;;;;;;;;;;;;;19.28;63.65;100337.53;7357781;19;19945;-59
2023/06/25 06:44:27;;;;;;;;;;;;;;;19.24;63.57;100326.28;7354325;19;19919;-59
2023/06/25 06:46:52;;;;;;;;;;;;;;;19.22;63.56;100327.34;7356357;19;19922;-59
2023/06/25 06:49:19;;;;;;;;;;;;;;;19.21;63.99;100337.09;7355065;19;19933;-59
2023/06/25 06:51:44;;;;;;;;;;;;;;;19.19;65.12;100331.88;7356944;19;20585;-59
2023/06/25 06:54:10;;;;;;;;;;;;;;;19.19;64.79;100338.97;7354546;19;20003;-59
2023/06/25 06:56:35;;;;;;;;;;;;;;;19.18;64.96;100331.97;7354259;19;19986;-59
2023/06/25 06:59:01;;;;;;;;;;;;;;;19.18;65.31;100332.81;7354995;19;20500;-59
2023/06/25 07:01:26;;;;;;;;;;;;;;;19.17;65.66;100331.13;7356580;19;19933;-60
2023/06/25 07:03:51;;;;;;;;;;;;;;;19.18;65.29;100326.69;7355085;19;19919;-59
2023/06/25 07:06:16;;;;;;;;;;;;;;;19.19;65.93;100336.31;7356859;19;20543;-59
2023/06/25 07:08:42;;;;;;;;;;;;;;;19.18;65.74;100331.97;7357368;19;19919;-59
2023/06/25 07:11:07;;;;;;;;;;;;;;;19.20;65.84;100338.00;7353913;19;19919;-59
2023/06/25 07:13:32;;;;;;;;;;;;;;;19.19;66.28;100331.88;7351983;19;20002;-59
2023/06/25 07:15:58;;;;;;;;;;;;;;;19.19;65.57;100329.22;7354960;19;19918;-59
2023/06/25 07:18:23;;;;;;;;;;;;;;;19.20;65.48;100332.72;7354903;19;20083;-59
2023/06/25 07:20:48;;;;;;;;;;;;;;;19.19;66.32;100334.50;7356048;19;20738;-59
2023/06/25 07:23:13;;;;;;;;;;;;;;;19.19;66.39;100328.38;7352260;19;20473;-60
2023/06/25 07:25:39;;;;;;;;;;;;;;;19.19;65.74;100338.97;7351823;19;19917;-59
2023/06/25 07:28:04;;;;;;;;;;;;;;;19.19;65.39;100349.53;7355640;19;19930;-59
2023/06/25 07:30:29;;;;;;;;;;;;;;;19.19;65.37;100354.84;7355081;19;20020;-60
2023/06/25 07:32:57;;;;;;;;;;;;;;;19.17;65.88;100364.69;7358395;19;19915;-62
2023/06/25 07:35:22;;;;;;;;;;;;;;;19.15;65.91;100363.91;7355124;19;19915;-62
2023/06/25 07:37:47;;;;;;;;;;;;;;;19.12;65.53;100366.78;7357225;19;20244;-62
2023/06/25 07:40:13;;;;;;;;;;;;;;;19.08;65.82;100370.56;7354719;19;20259;-62
2023/06/25 07:42:38;;;;;;;;;;;;;;;19.04;66.28;100361.13;7356269;19;19919;-62
2023/06/25 07:45:04;;;;;;;;;;;;;;;19.01;65.88;100364.81;7352889;19;19947;-62
2023/06/25 07:47:29;;;;;;;;;;;;;;;18.99;66.34;100364.03;7357256;19;20669;-63
2023/06/25 07:49:54;;;;;;;;;;;;;;;18.98;65.77;100358.84;7347691;19;19922;-63
2023/06/25 07:52:19;;;;;;;;;;;;;;;18.95;65.33;100353.75;7357756;19;19943;-62
2023/06/25 07:54:45;;;;;;;;;;;;;;;18.93;65.22;100364.44;7355180;19;20395;-62
2023/06/25 07:57:10;;;;;;;;;;;;;;;18.88;66.17;100356.78;7331350;19;19925;-63
2023/06/25 07:59:35;;;;;;;;;;;;;;;18.86;66.41;100353.41;7350921;19;19994;-62
2023/06/25 08:02:00;;;;;;;;;;;;;;;18.84;66.25;100349.97;7341737;19;19946;-62
2023/06/25 08:04:25;;;;;;;;;;;;;;;18.81;65.78;100355.47;7348660;19;19918;-63
2023/06/25 08:06:51;;;;;;;;;;;;;;;18.77;66.20;100364.53;7347868;19;19915;-62
2023/06/25 08:09:17;;;;;;;;;;;;;;;18.73;66.68;100341.03;7337023;19;19919;-62
2023/06/25 08:11:42;;;;;;;;;;;;;;;18.71;66.82;100342.94;7336683;19;20005;-62
2023/06/25 08:14:08;;;;;;;;;;;;;;;18.70;66.96;100341.19;7345382;19;20840;-62
2023/06/25 08:16:34;;;;;;;;;;;;;;;18.68;67.32;100343.94;7352307;19;19914;-62
2023/06/25 08:19:00;;;;;;;;;;;;;;;18.70;67.30;100347.34;7356870;19;19935;-62
2023/06/25 08:21:25;;;;;;;;;;;;;;;18.69;67.84;100345.66;7355467;19;20018;-62
2023/06/25 08:23:50;;;;;;;;;;;;;;;18.69;68.06;100337.72;7353430;19;20014;-61
2023/06/25 08:26:15;;;;;;;;;;;;;;;18.71;68.02;100327.91;7356340;19;19926;-62
2023/06/25 08:28:41;;;;;;;;;;;;;;;18.72;68.42;100321.66;7353735;19;20482;-62
2023/06/25 08:31:06;;;;;;;;;;;;;;;18.73;67.91;100336.59;7353932;19;19947;-62
2023/06/25 08:33:32;;;;;;;;;;;;;;;18.73;68.19;100326.00;7355859;19;19939;-62
2023/06/25 08:35:57;;;;;;;;;;;;;;;18.75;68.46;100320.59;7355993;19;19926;-62
2023/06/25 08:38:24;;;;;;;;;;;;;;;18.77;66.94;100338.09;7357206;19;20436;-62
2023/06/25 08:40:52;;;;;;;;;;;;;;;18.77;67.48;100346.03;7357091;19;20328;-62
2023/06/25 08:43:17;;;;;;;;;;;;;;;18.77;66.64;100356.63;7351776;19;20731;-62
2023/06/25 08:45:42;;;;;;;;;;;;;;;18.76;67.28;100357.56;7355355;19;19986;-62
2023/06/25 08:48:12;;;;;;;;;;;;;;;18.75;67.83;100357.63;7336712;19;19938;-62
2023/06/25 08:50:39;;;;;;;;;;;;;;;18.74;67.80;100359.44;7354412;19;20343;-62
2023/06/25 08:53:05;;;;;;;;;;;;;;;18.73;68.10;100363.03;7355996;19;20007;-62
2023/06/25 08:55:30;;;;;;;;;;;;;;;18.74;68.32;100359.44;7349426;19;20892;-62
2023/06/25 08:57:56;;;;;;;;;;;;;;;18.75;67.47;100360.28;7354368;19;19987;-62
2023/06/25 09:00:21;;;;;;;;;;;;;;;18.47;68.25;100321.44;7352799;19;19919;-63
2023/06/25 09:02:46;;;;;;;;;;;;;;;18.77;68.75;100369.00;7354049;19;19961;-63
2023/06/25 09:05:12;;;;;;;;;;;;;;;18.81;68.53;100371.34;7352328;19;19965;-62
2023/06/25 09:07:44;;;;;;;;;;;;;;;18.85;68.73;100361.41;7350734;19;19946;-63
2023/06/25 09:10:10;;;;;;;;;;;;;;;18.90;69.36;100348.75;7353570;19;19932;-63
2023/06/25 09:12:35;;;;;;;;;;;;;;;18.97;69.81;100363.31;7353951;19;20549;-62
2023/06/25 09:15:01;;;;;;;;;;;;;;;19.04;70.11;100366.41;7349985;19;19927;-63
2023/06/25 09:17:26;;;;;;;;;;;;;;;19.11;69.05;100370.34;7352269;19;19919;-62
2023/06/25 09:19:51;;;;;;;;;;;;;;;19.18;69.22;100383.13;7354208;19;19935;-62
2023/06/25 09:22:16;;;;;;;;;;;;;;;19.23;69.28;100380.19;7352674;19;19923;-62
2023/06/25 09:24:47;;;;;;;;;;;;;;;19.28;68.88;100386.03;7354030;19;20043;-64
2023/06/25 09:27:12;;;;;;;;;;;;;;;19.30;69.16;100384.13;7349025;19;20811;-62
2023/06/25 09:29:38;;;;;;;;;;;;;;;19.32;68.87;100398.13;7350731;19;20360;-62
2023/06/25 09:32:07;;;;;;;;;;;;;;;19.31;69.31;100393.78;7347562;19;19934;-63
2023/06/25 09:34:33;;;;;;;;;;;;;;;19.33;69.00;100398.97;7350562;19;19923;-62
2023/06/25 09:36:58;;;;;;;;;;;;;;;19.34;68.84;100396.22;7351582;19;19922;-62
2023/06/25 09:39:23;;;;;;;;;;;;;;;19.33;68.98;100394.53;7352117;19;19922;-63
2023/06/25 09:41:50;;;;;;;;;;;;;;;19.32;68.81;100398.13;7356637;19;20352;-63
2023/06/25 09:44:17;;;;;;;;;;;;;;;19.33;68.42;100388.38;7354239;19;19979;-63
2023/06/25 09:46:46;;;;;;;;;;;;;;;19.32;68.96;100392.84;7354713;19;19919;-62
2023/06/25 09:49:12;;;;;;;;;;;;;;;19.32;68.88;100386.69;7354095;19;19926;-63
2023/06/25 09:51:53;;;;;;;;;;;;;;;19.32;69.52;100384.88;7355786;19;19927;-63
2023/06/25 09:54:21;;;;;;;;;;;;;;;19.35;69.57;100383.81;7353276;19;19915;-62
2023/06/25 09:56:48;;;;;;;;;;;;;;;19.39;69.60;100383.53;7347834;19;20844;-62
2023/06/25 09:59:13;;;;;;;;;;;;;;;19.45;70.06;100383.13;7355106;19;19955;-63
2023/06/25 10:01:38;;;;;;;;;;;;;;;19.53;70.27;100379.16;7355126;19;19918;-63
2023/06/25 10:04:04;;;;;;;;;;;;;;;19.62;70.81;100370.66;7355350;19;19930;-63
2023/06/25 10:06:30;;;;;;;;;;;;;;;19.73;71.05;100381.38;7354286;19;21092;-63
2023/06/25 10:08:55;;;;;;;;;;;;;;;19.81;70.93;100384.34;7351338;19;20344;-63
2023/06/25 10:11:21;;;;;;;;;;;;;;;19.90;70.91;100409.41;7354666;19;19915;-63
2023/06/25 10:13:48;;;;;;;;;;;;;;;19.97;70.99;100402.72;7352338;19;20004;-62
2023/06/25 10:16:20;;;;;;;;;;;;;;;20.06;71.18;100396.81;7350475;19;19931;-63
2023/06/25 10:18:46;;;;;;;;;;;;;;;20.18;71.56;100390.72;7331257;19;19951;-63
2023/06/25 10:21:19;;;;;;;;;;;;;;;20.34;72.28;100402.94;7343924;19;19915;-62
2023/06/25 10:23:52;;;;;;;;;;;;;;;20.57;72.19;100398.72;7344182;19;19936;-63
2023/06/25 10:26:17;;;;;;;;;;;;;;;20.75;72.34;100401.91;7347302;19;20696;-63
2023/06/25 10:28:50;;;;;;;;;;;;;;;20.89;72.70;100409.75;7345016;19;19915;-63
2023/06/25 10:31:16;;;;;;;;;;;;;;;20.96;71.53;100426.94;7334886;19;19990;-63
2023/06/25 10:33:42;;;;;;;;;;;;;;;20.96;71.53;100417.16;7343930;19;19934;-63
2023/06/25 10:36:08;;;;;;;;;;;;;;;20.95;70.97;100418.13;7335637;19;19923;-62
2023/06/25 10:38:34;;;;;;;;;;;;;;;20.95;70.71;100420.78;7343685;19;20753;-62
2023/06/25 10:40:59;;;;;;;;;;;;;;;20.93;70.98;100406.78;7344298;19;19949;-62
2023/06/25 10:43:24;;;;;;;;;;;;;;;20.90;70.61;100388.41;7342978;19;20709;-62
2023/06/25 10:45:50;;;;;;;;;;;;;;;20.90;71.13;100380.44;7344764;19;19943;-63
2023/06/25 10:48:16;;;;;;;;;;;;;;;20.89;71.11;100400.00;7344679;19;20592;-63
2023/06/25 10:50:41;;;;;;;;;;;;;;;20.88;70.90;100405.38;7346173;19;19915;-63
2023/06/25 10:53:13;;;;;;;;;;;;;;;20.88;70.67;100430.16;7332615;19;19972;-62
2023/06/25 10:55:39;;;;;;;;;;;;;;;20.87;70.91;100444.34;7343933;19;19915;-63
2023/06/25 10:58:04;;;;;;;;;;;;;;;20.84;70.80;100436.63;7345336;19;19919;-63
2023/06/25 11:00:30;;;;;;;;;;;;;;;20.80;70.32;100432.47;7343790;19;20018;-63
2023/06/25 11:02:56;;;;;;;;;;;;;;;20.76;70.78;100431.00;7342240;19;19925;-62
2023/06/25 11:05:30;;;;;;;;;;;;;;;20.72;71.19;100432.16;7343027;19;19919;-63
2023/06/25 11:07:56;;;;;;;;;;;;;;;20.70;71.15;100431.41;7339061;19;20347;-63
2023/06/25 11:10:22;;;;;;;;;;;;;;;20.74;71.81;100432.91;7342257;19;19944;-63
2023/06/25 11:12:48;;;;;;;;;;;;;;;20.85;72.38;100435.66;7343960;19;20247;-62
2023/06/25 11:15:14;;;;;;;;;;;;;;;21.02;72.44;100430.97;7344383;19;19923;-62
2023/06/25 11:17:39;;;;;;;;;;;;;;;21.27;73.48;100419.44;7341942;19;19934;-63
2023/06/25 11:20:05;;;;;;;;;;;;;;;21.55;73.84;100423.66;7346729;19;20601;-63
2023/06/25 11:22:30;;;;;;;;;;;;;;;21.93;74.67;100419.00;7342207;19;19957;-62
2023/06/25 11:24:56;;;;;;;;;;;;;;;22.33;74.98;100418.69;7340991;19;20055;-62
2023/06/25 11:27:25;;;;;;;;;;;;;;;22.74;75.19;100430.63;7344240;19;19936;-63
2023/06/25 11:29:51;;;;;;;;;;;;;;;23.10;74.57;100428.75;7341440;19;19933;-62
2023/06/25 11:32:21;;;;;;;;;;;;;;;23.42;75.05;100427.03;7344830;19;20380;-62
2023/06/25 11:34:46;;;;;;;;;;;;;;;23.73;74.36;100421.91;7343872;19;19922;-63
2023/06/25 11:37:12;;;;;;;;;;;;;;;23.96;74.07;100434.16;7342537;19;19930;-62
2023/06/25 11:39:41;;;;;;;;;;;;;;;24.17;73.84;100423.50;7343177;19;19926;-62
2023/06/25 11:42:11;;;;;;;;;;;;;;;24.44;73.36;100428.38;7344263;19;19929;-62
2023/06/25 11:44:36;;;;;;;;;;;;;;;24.72;73.22;100434.00;7343012;19;20637;-62
2023/06/25 11:47:02;;;;;;;;;;;;;;;24.99;73.02;100428.97;7337376;19;19946;-62
2023/06/25 11:49:27;;;;;;;;;;;;;;;25.28;72.81;100430.91;7342831;19;19919;-63
2023/06/25 11:51:52;;;;;;;;;;;;;;;25.54;72.90;100437.44;7342121;19;19918;-62
2023/06/25 11:54:18;;;;;;;;;;;;;;;25.74;72.14;100443.69;7342388;19;19922;-62
2023/06/25 11:56:43;;;;;;;;;;;;;;;25.83;71.32;100444.72;7341991;19;19919;-62
2023/06/25 11:59:08;;;;;;;;;;;;;;;25.85;70.55;100448.09;7338798;19;20005;-62
2023/06/25 12:01:33;;;;;;;;;;;;;;;25.82;70.40;100448.38;7342928;19;19930;-62
2023/06/25 12:03:59;;;;;;;;;;;;;;;25.78;69.60;100454.97;7337764;19;19923;-62
2023/06/25 12:06:25;;;;;;;;;;;;;;;25.72;69.71;100450.16;7336238;19;19933;-63
2023/06/25 12:08:50;;;;;;;;;;;;;;;25.68;69.98;100443.41;7340531;19;19944;-62
2023/06/25 12:11:16;;;;;;;;;;;;;;;25.72;70.74;100451.00;7341230;19;19922;-62
2023/06/25 12:13:41;;;;;;;;;;;;;;;25.94;71.52;100441.91;7341605;19;20665;-63
2023/06/25 12:16:06;;;;;;;;;;;;;;;26.32;72.79;100448.25;7342503;19;19922;-62
2023/06/25 12:18:31;;;;;;;;;;;;;;;26.77;73.03;100436.91;7342552;19;20524;-63
2023/06/25 12:20:57;;;;;;;;;;;;;;;27.28;73.08;100428.41;7343829;19;19943;-62
2023/06/25 12:23:22;;;;;;;;;;;;;;;27.83;72.96;100432.88;7332628;19;19927;-62
2023/06/25 12:25:47;;;;;;;;;;;;;;;28.42;72.72;100426.03;7340492;19;19945;-62
2023/06/25 12:28:12;;;;;;;;;;;;;;;29.03;72.14;100433.13;7340648;19;20021;-63